Home > Products > Valid Products > TAF

000
FTUS46 KSGX 012010 AAA
TAFCRQ
TAF AMD
KCRQ 012010Z 0120/0218 26008KT P6SM FEW015 BKN250
      TEMPO 0120/0122 BKN015
     FM020200 VRB03KT P6SM OVC010
     FM021700 VRB04KT P6SM SCT014=



000
FTUS46 KSGX 011954 AAA
TAFSAN
TAF AMD
KSAN 011954Z 0120/0224 29010KT P6SM SCT020 BKN250
      TEMPO 0120/0122 BKN020
     FM020300 VRB04KT P6SM OVC016
     FM021800 26005KT P6SM SCT020
     FM021900 29010KT P6SM FEW020=



000
FTUS46 KSGX 011725
TAFPSP
TAF
KPSP 011725Z 0118/0218 VRB06KT P6SM SCT250
     FM012300 32012G22KT P6SM FEW250
     FM020700 VRB05KT P6SM FEW250=



000
FTUS46 KSGX 011725
TAFTRM
TAF
KTRM 011725Z 0118/0218 14007KT P6SM SCT250
     FM020200 33011KT P6SM FEW250
     FM021200 VRB05KT P6SM FEW250=



000
FTUS46 KSGX 011725
TAFSAN
TAF
KSAN 011725Z 0118/0224 29010KT P6SM SCT018 SCT250
     FM020300 VRB04KT P6SM OVC013
     FM021700 26005KT P6SM SCT018
     FM021900 29010KT P6SM FEW020=



000
FTUS46 KSGX 011725
TAFCRQ
TAF
KCRQ 011725Z 0118/0218 26008KT P6SM FEW015 SCT250
     FM020200 VRB03KT P6SM OVC009
     FM021700 VRB04KT P6SM SCT014=



000
FTUS46 KSGX 011725
TAFSNA
TAF
KSNA 011725Z 0118/0218 VRB05KT P6SM SCT250
     FM012000 22009KT P6SM SCT250
     FM020300 VRB05KT P6SM SCT015
     FM020700 VRB03KT P6SM OVC010=



000
FTUS46 KSGX 011725
TAFONT
TAF
KONT 011725Z 0118/0224 27006KT 6SM HZ FEW250
     FM012100 26012G20KT P6SM SCT250
     FM020100 27009KT P6SM SCT250
     FM020500 VRB05KT P6SM FEW250
     FM021300 VRB03KT 4SM BR SCT008
     FM022100 26012G20KT P6SM FEW250=



000
FTUS46 KSGX 011520 AAB
TAFCRQ
TAF AMD
KCRQ 011520Z 0115/0212 VRB03KT P6SM OVC010
      TEMPO 0115/0116 6SM BR OVC008
     FM011730 27008KT P6SM SCT014 SCT250
     FM020200 VRB03KT P6SM OVC012=



000
FTUS46 KSGX 011517 AAB
TAFONT
TAF AMD
KONT 011517Z 0115/0218 27006KT 4SM BR FEW250
      TEMPO 0115/0116 3SM BR BKN007
     FM012000 26012G20KT P6SM SCT250
     FM020100 27009KT P6SM SCT250
     FM020500 VRB05KT P6SM FEW250
     FM021300 VRB03KT 4SM BR SCT008=



000
FTUS46 KSGX 011406 AAB
TAFSNA
TAF AMD
KSNA 011406Z 0114/0212 VRB04KT P6SM OVC010
     FM011700 VRB05KT P6SM SCT012 SCT250
     FM012000 22009KT P6SM SCT250
     FM020300 VRB05KT P6SM SCT015
     FM020700 VRB03KT P6SM OVC012=



000
FTUS46 KSGX 011406 AAB
TAFSNA
TAF AMD
KSNA 011406Z 0114/0212 VRB04KT P6SM OVC010
     FM011700 VRB05KT P6SM SCT012 SCT250
     FM012000 22009KT P6SM SCT250
     FM020300 VRB05KT P6SM SCT015
     FM020700 VRB03KT P6SM OVC012=



000
FTUS46 KSGX 011405 AAA
TAFCRQ
TAF AMD
KCRQ 011405Z 0114/0212 VRB03KT P6SM OVC011
      TEMPO 0114/0116 5SM BR OVC008
     FM011700 27008KT P6SM SCT013 SCT250
     FM020200 VRB03KT P6SM OVC012=



000
FTUS46 KSGX 011405 AAA
TAFCRQ
TAF AMD
KCRQ 011405Z 0114/0212 VRB03KT P6SM OVC011
      TEMPO 0114/0116 5SM BR OVC008
     FM011700 27008KT P6SM SCT013 SCT250
     FM020200 VRB03KT P6SM OVC012=



000
FTUS46 KSGX 011326 AAA
TAFONT
TAF AMD
KONT 011326Z 0113/0218 VRB04KT 4SM BR BKN010
      TEMPO 0113/0115 3SM BR BKN005
     FM011630 VRB05KT 5SM HZ FEW010
     FM012000 26012G18KT P6SM SCT250
     FM020500 VRB05KT P6SM FEW250
     FM021100 VRB03KT 5SM BR BKN008
     FM021600 VRB04KT 6SM HZ SCT010=



000
FTUS46 KSGX 011248 AAA
TAFSNA
TAF AMD
KSNA 011248Z 0113/0212 VRB04KT P6SM OVC010
      TEMPO 0113/0115 OVC008
     FM011700 VRB05KT P6SM SCT012 SCT250
     FM012000 22009KT P6SM SCT250
     FM020300 VRB05KT P6SM SCT015
     FM020700 VRB03KT P6SM OVC012=



000
FTUS46 KSGX 011248 AAA
TAFSNA
TAF AMD
KSNA 011248Z 0113/0212 VRB04KT P6SM OVC010
      TEMPO 0113/0115 OVC008
     FM011700 VRB05KT P6SM SCT012 SCT250
     FM012000 22009KT P6SM SCT250
     FM020300 VRB05KT P6SM SCT015
     FM020700 VRB03KT P6SM OVC012=



000
FTUS46 KSGX 011120
TAFTRM
TAF
KTRM 011120Z 0112/0212 VRB05KT P6SM SCT250
     FM020300 33011KT P6SM FEW250
     FM021000 VRB05KT P6SM FEW250=



000
FTUS46 KSGX 011120
TAFCRQ
TAF
KCRQ 011120Z 0112/0212 VRB03KT P6SM OVC011
     FM011700 27008KT P6SM SCT013 SCT250
     FM020200 VRB03KT P6SM OVC012=



000
FTUS46 KSGX 011120
TAFCRQ
TAF
KCRQ 011120Z 0112/0212 VRB03KT P6SM OVC011
     FM011700 27008KT P6SM SCT013 SCT250
     FM020200 VRB03KT P6SM OVC012=



000
FTUS46 KSGX 011120
TAFSAN
TAF
KSAN 011120Z 0112/0218 VRB04KT P6SM OVC013
     FM011700 29010KT P6SM SCT015 SCT250
     FM020200 VRB05KT P6SM SCT015 SCT250
     FM020500 VRB04KT P6SM OVC015
     FM021700 VRB04KT P6SM SCT018=



000
FTUS46 KSGX 011120
TAFPSP
TAF
KPSP 011120Z 0112/0212 VRB05KT P6SM SCT250
     FM012300 32010G20KT P6SM FEW250
     FM020700 VRB05KT P6SM FEW250=



000
FTUS46 KSGX 011120
TAFSAN
TAF
KSAN 011120Z 0112/0218 VRB04KT P6SM OVC013
     FM011700 29010KT P6SM SCT015 SCT250
     FM020200 VRB05KT P6SM SCT015 SCT250
     FM020500 VRB04KT P6SM OVC015
     FM021700 VRB04KT P6SM SCT018=



000
FTUS46 KSGX 011120
TAFONT
TAF
KONT 011120Z 0112/0218 VRB04KT P6SM SCT250
      TEMPO 0113/0116 5SM HZ
     FM012000 26010G18KT P6SM SCT250
     FM020500 VRB05KT P6SM FEW250
     FM021100 VRB03KT 5SM BR BKN008
     FM021600 VRB04KT 6SM HZ SCT010=



000
FTUS46 KSGX 011120
TAFSNA
TAF
KSNA 011120Z 0112/0212 VRB04KT P6SM OVC010
     FM011700 VRB05KT P6SM SCT012 SCT250
     FM012000 22009KT P6SM SCT250
     FM020300 VRB05KT P6SM SCT015
     FM020700 VRB03KT P6SM OVC012=



000
FTUS46 KSGX 011120
TAFPSP
TAF
KPSP 011120Z 0112/0212 VRB05KT P6SM SCT250
     FM012300 32010G20KT P6SM FEW250
     FM020700 VRB05KT P6SM FEW250=



000
FTUS46 KSGX 011120
TAFTRM
TAF
KTRM 011120Z 0112/0212 VRB05KT P6SM SCT250
     FM020300 33011KT P6SM FEW250
     FM021000 VRB05KT P6SM FEW250=



000
FTUS46 KSGX 011120
TAFONT
TAF
KONT 011120Z 0112/0218 VRB04KT P6SM SCT250
      TEMPO 0113/0116 5SM HZ
     FM012000 26010G18KT P6SM SCT250
     FM020500 VRB05KT P6SM FEW250
     FM021100 VRB03KT 5SM BR BKN008
     FM021600 VRB04KT 6SM HZ SCT010=



000
FTUS46 KSGX 011120
TAFSNA
TAF
KSNA 011120Z 0112/0212 VRB04KT P6SM OVC010
     FM011700 VRB05KT P6SM SCT012 SCT250
     FM012000 22009KT P6SM SCT250
     FM020300 VRB05KT P6SM SCT015
     FM020700 VRB03KT P6SM OVC012=



000
FTUS46 KSGX 010815 AAA
TAFSAN
TAF AMD
KSAN 010815Z 0108/0212 VRB05KT P6SM OVC012
      TEMPO 0108/0110 SCT012
     FM011700 29010KT P6SM SCT018 SCT250
     FM020200 VRB05KT P6SM SCT015 SCT250
     FM020500 VRB04KT P6SM OVC015=



000
FTUS46 KSGX 010815 AAA
TAFSAN
TAF AMD
KSAN 010815Z 0108/0212 VRB05KT P6SM OVC012
      TEMPO 0108/0110 SCT012
     FM011700 29010KT P6SM SCT018 SCT250
     FM020200 VRB05KT P6SM SCT015 SCT250
     FM020500 VRB04KT P6SM OVC015=



000
FTUS46 KSGX 010520
TAFONT
TAF
KONT 010520Z 0106/0212 VRB06KT P6SM FEW200 BKN250
     FM012000 26010G18KT P6SM SCT250
     FM020500 VRB05KT P6SM FEW250
     FM021000 VRB03KT 5SM BR SCT008=



000
FTUS46 KSGX 010520
TAFTRM
TAF
KTRM 010520Z 0106/0206 33009KT P6SM SCT250
     FM010800 VRB05KT P6SM SCT250
     FM020300 33011KT P6SM FEW250=



000
FTUS46 KSGX 010520
TAFTRM
TAF
KTRM 010520Z 0106/0206 33009KT P6SM SCT250
     FM010800 VRB05KT P6SM SCT250
     FM020300 33011KT P6SM FEW250=



000
FTUS46 KSGX 010520
TAFSAN
TAF
KSAN 010520Z 0106/0212 VRB05KT P6SM OVC012
     FM011700 29010KT P6SM SCT018 SCT250
     FM020200 VRB05KT P6SM SCT015 SCT250
     FM020500 VRB04KT P6SM OVC015=



000
FTUS46 KSGX 010520
TAFSAN
TAF
KSAN 010520Z 0106/0212 VRB05KT P6SM OVC012
     FM011700 29010KT P6SM SCT018 SCT250
     FM020200 VRB05KT P6SM SCT015 SCT250
     FM020500 VRB04KT P6SM OVC015=



000
FTUS46 KSGX 010520
TAFONT
TAF
KONT 010520Z 0106/0212 VRB06KT P6SM FEW200 BKN250
     FM012000 26010G18KT P6SM SCT250
     FM020500 VRB05KT P6SM FEW250
     FM021000 VRB03KT 5SM BR SCT008=



000
FTUS46 KSGX 010520
TAFPSP
TAF
KPSP 010520Z 0106/0206 32010KT P6SM SCT250
     FM010800 VRB06KT P6SM SCT250
     FM012300 32010G20KT P6SM FEW250=



000
FTUS46 KSGX 010520
TAFCRQ
TAF
KCRQ 010520Z 0106/0206 VRB03KT P6SM OVC010
     FM011700 27008KT P6SM SCT012 SCT250
     FM020200 VRB03KT P6SM OVC010=



000
FTUS46 KSGX 010520
TAFSNA
TAF
KSNA 010520Z 0106/0206 VRB04KT P6SM FEW012 BKN250
     FM010900 VRB03KT P6SM BKN010
     FM011700 VRB05KT P6SM SCT012 SCT250
     FM011900 22009KT P6SM SCT250
     FM020300 VRB05KT P6SM SCT015=



000
FTUS46 KSGX 010520
TAFCRQ
TAF
KCRQ 010520Z 0106/0206 VRB03KT P6SM OVC010
     FM011700 27008KT P6SM SCT012 SCT250
     FM020200 VRB03KT P6SM OVC010=



000
FTUS46 KSGX 010520
TAFSNA
TAF
KSNA 010520Z 0106/0206 VRB04KT P6SM FEW012 BKN250
     FM010900 VRB03KT P6SM BKN010
     FM011700 VRB05KT P6SM SCT012 SCT250
     FM011900 22009KT P6SM SCT250
     FM020300 VRB05KT P6SM SCT015=



000
FTUS46 KSGX 010520
TAFPSP
TAF
KPSP 010520Z 0106/0206 32010KT P6SM SCT250
     FM010800 VRB06KT P6SM SCT250
     FM012300 32010G20KT P6SM FEW250=



000
FTUS46 KSGX 010301 AAA
TAFSAN
TAF AMD
KSAN 010301Z 0103/0206 29009KT P6SM FEW015 BKN200
     FM010500 30005KT P6SM OVC015
     FM011800 29010KT P6SM SCT020
     FM020300 VRB05KT P6SM OVC015=



000
FTUS46 KSGX 010301 AAA
TAFSAN
TAF AMD
KSAN 010301Z 0103/0206 29009KT P6SM FEW015 BKN200
     FM010500 30005KT P6SM OVC015
     FM011800 29010KT P6SM SCT020
     FM020300 VRB05KT P6SM OVC015=



000
FTUS46 KSGX 312328
TAFCRQ
TAF
KCRQ 312328Z 0100/0124 25008KT P6SM SCT200
     FM010200 VRB05KT P6SM OVC012
     FM011800 28010KT P6SM SCT015=



000
FTUS46 KSGX 312328
TAFPSP
TAF
KPSP 312328Z 0100/0124 33015G25KT P6SM FEW100
     FM010600 VRB05KT P6SM FEW100=



000
FTUS46 KSGX 312328
TAFONT
TAF
KONT 312328Z 0100/0206 27011G18KT P6SM FEW080 SCT200
     FM010400 VRB05KT P6SM FEW200
     FM011100 VRB04KT 4SM BR OVC010
     FM011600 VRB05KT 6SM HZ FEW010
     FM012000 26012G20KT P6SM FEW250
     FM020200 VRB05KT P6SM FEW250=



000
FTUS46 KSGX 312328
TAFSNA
TAF
KSNA 312328Z 0100/0124 22008KT P6SM SCT015 SCT200
     FM010600 VRB05KT P6SM BKN012
     FM011830 VRB03KT P6SM SCT012=



000
FTUS46 KSGX 312328
TAFTRM
TAF
KTRM 312328Z 0100/0124 VRB05KT P6SM FEW100
     FM010300 33012G20KT P6SM FEW200
     FM010700 33007KT P6SM SKC=



000
FTUS46 KSGX 312328
TAFSAN
TAF
KSAN 312328Z 0100/0206 29011KT P6SM FEW015 BKN200
     FM010300 30005KT P6SM OVC015
     FM011800 29010KT P6SM SCT020
     FM020300 VRB05KT P6SM OVC015=



000
FTUS46 KSGX 312328
TAFTRM
TAF
KTRM 312328Z 0100/0124 VRB05KT P6SM FEW100
     FM010300 33012G20KT P6SM FEW200
     FM010700 33007KT P6SM SKC=



000
FTUS46 KSGX 312328
TAFCRQ
TAF
KCRQ 312328Z 0100/0124 25008KT P6SM SCT200
     FM010200 VRB05KT P6SM OVC012
     FM011800 28010KT P6SM SCT015=



000
FTUS46 KSGX 312328
TAFPSP
TAF
KPSP 312328Z 0100/0124 33015G25KT P6SM FEW100
     FM010600 VRB05KT P6SM FEW100=



000
FTUS46 KSGX 312328
TAFONT
TAF
KONT 312328Z 0100/0206 27011G18KT P6SM FEW080 SCT200
     FM010400 VRB05KT P6SM FEW200
     FM011100 VRB04KT 4SM BR OVC010
     FM011600 VRB05KT 6SM HZ FEW010
     FM012000 26012G20KT P6SM FEW250
     FM020200 VRB05KT P6SM FEW250=



000
FTUS46 KSGX 312328
TAFSNA
TAF
KSNA 312328Z 0100/0124 22008KT P6SM SCT015 SCT200
     FM010600 VRB05KT P6SM BKN012
     FM011830 VRB03KT P6SM SCT012=



000
FTUS46 KSGX 312328
TAFSAN
TAF
KSAN 312328Z 0100/0206 29011KT P6SM FEW015 BKN200
     FM010300 30005KT P6SM OVC015
     FM011800 29010KT P6SM SCT020
     FM020300 VRB05KT P6SM OVC015=



000
FTUS46 KSGX 312037 AAA
TAFSAN
TAF AMD
KSAN 312037Z 3121/0124 30010KT P6SM SCT015 SCT250
     FM010300 30005KT P6SM OVC015
     FM011730 29010KT P6SM SCT020=



000
FTUS46 KSGX 311738
TAFONT
TAF
KONT 311738Z 3118/0124 VRB04KT P6SM SCT250
     FM312000 27010G18KT P6SM FEW080 SCT200
     FM010300 27007KT P6SM FEW200
     FM011100 VRB04KT 4SM BR OVC008
     FM011600 VRB05KT 6SM HZ FEW010
     FM012000 26012G20KT P6SM FEW250=



000
FTUS46 KSGX 311738
TAFSAN
TAF
KSAN 311738Z 3118/0124 29009KT P6SM SCT015 SCT200
     FM010100 30006KT P6SM OVC015
     FM011800 29009KT P6SM SCT020=



000
FTUS46 KSGX 311738
TAFCRQ
TAF
KCRQ 311738Z 3118/0118 25008KT P6SM SCT200
     FM010100 VRB05KT P6SM OVC010=



000
FTUS46 KSGX 311738
TAFSNA
TAF
KSNA 311738Z 3118/0118 VRB05KT P6SM OVC012
     FM312000 22008KT P6SM SCT015 SCT200
     FM010300 VRB05KT P6SM SCT015
     FM010500 VRB03KT P6SM OVC012=



000
FTUS46 KSGX 311738
TAFTRM
TAF
KTRM 311738Z 3118/0118 VRB05KT P6SM SKC
     FM312000 13010G16KT P6SM FEW100 SCT200
     FM010300 33012G20KT P6SM FEW200
     FM011000 33007KT P6SM SKC=



000
FTUS46 KSGX 311738
TAFPSP
TAF
KPSP 311738Z 3118/0118 VRB05KT P6SM FEW200
     FM312000 10008KT P6SM FEW100 BKN200
     FM010100 32012G22KT P6SM FEW100 BKN250
     FM010700 VRB05KT P6SM SKC=



000
FTUS46 KSGX 311406 AAA
TAFCRQ
TAF AMD
KCRQ 311406Z 3114/0112 22005KT P6SM OVC010
     FM311900 25008KT P6SM SCT014 SCT200
     FM010100 VRB05KT P6SM OVC010=



000
FTUS46 KSGX 311406 AAA
TAFCRQ
TAF AMD
KCRQ 311406Z 3114/0112 22005KT P6SM OVC010
     FM311900 25008KT P6SM SCT014 SCT200
     FM010100 VRB05KT P6SM OVC010=



000
FTUS46 KSGX 311120
TAFTRM
TAF
KTRM 311120Z 3112/0112 VRB05KT P6SM SKC
     FM312000 13010KT P6SM FEW100 SCT200
     FM010300 33010G20KT P6SM FEW200
     FM011000 33007KT P6SM SKC=



000
FTUS46 KSGX 311120
TAFCRQ
TAF
KCRQ 311120Z 3112/0112 VRB03KT P6SM OVC008
     FM311600 VRB05KT P6SM OVC010
     FM311900 25008KT P6SM SCT012 SCT200
     FM010100 VRB05KT P6SM OVC010=



000
FTUS46 KSGX 311120
TAFSAN
TAF
KSAN 311120Z 3112/0118 VRB05KT P6SM OVC013
     FM311900 29009KT P6SM SCT015 SCT200
     FM010100 30006KT P6SM OVC015
     FM011700 VRB05KT P6SM SCT018=



000
FTUS46 KSGX 311120
TAFPSP
TAF
KPSP 311120Z 3112/0112 VRB05KT P6SM FEW200
     FM312000 10008KT P6SM FEW100 SCT200
     FM010100 32012G20KT P6SM FEW250
     FM010700 VRB06KT P6SM SKC=



000
FTUS46 KSGX 311120
TAFSNA
TAF
KSNA 311120Z 3112/0112 VRB04KT P6SM OVC010
     FM311800 22008KT P6SM SCT015 SCT200
     FM010300 VRB05KT P6SM SCT015
     FM010500 VRB03KT P6SM OVC012=



000
FTUS46 KSGX 311120
TAFONT
TAF
KONT 311120Z 3112/0118 VRB04KT P6SM SKC
     FM312000 27010G18KT P6SM FEW080 SCT200
     FM010200 27007KT P6SM FEW200
     FM011100 VRB04KT 5SM BR BKN008
     FM011600 VRB05KT 6SM HZ SCT010=



000
FTUS46 KSGX 310916 AAA
TAFSAN
TAF AMD
KSAN 310916Z 3109/0112 VRB05KT P6SM OVC013
     FM311900 29009KT P6SM SCT015
     FM010200 VRB05KT P6SM OVC015=



000
FTUS46 KSGX 310822 AAA
TAFSNA
TAF AMD
KSNA 310822Z 3108/0106 VRB04KT P6SM OVC012
     FM311800 22008KT P6SM SCT015 SCT200
     FM010300 VRB05KT P6SM SCT250=



000
FTUS46 KSGX 310822 AAA
TAFSNA
TAF AMD
KSNA 310822Z 3108/0106 VRB04KT P6SM OVC012
     FM311800 22008KT P6SM SCT015 SCT200
     FM010300 VRB05KT P6SM SCT250=



000
FTUS46 KSGX 310821 AAA
TAFCRQ
TAF AMD
KCRQ 310821Z 3108/0106 VRB05KT P6SM OVC008
     FM311900 25008KT P6SM SCT012 SCT200
     FM010200 VRB05KT P6SM BKN010=



000
FTUS46 KSGX 310520
TAFTRM
TAF
KTRM 310520Z 3106/0106 28008KT P6SM FEW060 SCT110
     FM310800 VRB05KT P6SM SKC
     FM312000 11010KT P6SM FEW100
     FM010300 32010KT P6SM FEW100=



000
FTUS46 KSGX 310520
TAFONT
TAF
KONT 310520Z 3106/0112 VRB05KT P6SM FEW100 SCT150 BKN250
     FM311200 VRB05KT P6SM SCT010 SCT100 SCT250
     FM312000 26010G15KT P6SM SCT040 SCT120
     FM010400 VRB05KT P6SM SCT040 SCT120=



000
FTUS46 KSGX 310520
TAFCRQ
TAF
KCRQ 310520Z 3106/0106 VRB05KT P6SM BKN010 BKN100
      TEMPO 3106/3108 SCT010
     FM311800 VRB05KT P6SM SCT015
     FM312100 20008KT P6SM SCT020
     FM010200 VRB05KT P6SM BKN020=



000
FTUS46 KSGX 310520
TAFTRM
TAF
KTRM 310520Z 3106/0106 28008KT P6SM FEW060 SCT110
     FM310800 VRB05KT P6SM SKC
     FM312000 11010KT P6SM FEW100
     FM010300 32010KT P6SM FEW100=



000
FTUS46 KSGX 310520
TAFCRQ
TAF
KCRQ 310520Z 3106/0106 VRB05KT P6SM BKN010 BKN100
      TEMPO 3106/3108 SCT010
     FM311800 VRB05KT P6SM SCT015
     FM312100 20008KT P6SM SCT020
     FM010200 VRB05KT P6SM BKN020=



000
FTUS46 KSGX 310520
TAFSNA
TAF
KSNA 310520Z 3106/0106 VRB05KT P6SM FEW015 SCT110 SCT250
     FM311700 22008KT P6SM SCT020 BKN050
     FM010300 VRB05KT P6SM SCT250=



000
FTUS46 KSGX 310520
TAFSNA
TAF
KSNA 310520Z 3106/0106 VRB05KT P6SM FEW015 SCT110 SCT250
     FM311700 22008KT P6SM SCT020 BKN050
     FM010300 VRB05KT P6SM SCT250=



000
FTUS46 KSGX 310520
TAFSAN
TAF
KSAN 310520Z 3106/0112 VRB05KT P6SM BKN012 BKN090 BKN110
      TEMPO 3106/3108 SCT010
     FM311700 28010KT P6SM SCT015
     FM010300 VRB05KT P6SM SCT015 BKN025=



000
FTUS46 KSGX 310520
TAFSAN
TAF
KSAN 310520Z 3106/0112 VRB05KT P6SM BKN012 BKN090 BKN110
      TEMPO 3106/3108 SCT010
     FM311700 28010KT P6SM SCT015
     FM010300 VRB05KT P6SM SCT015 BKN025=



000
FTUS46 KSGX 310520
TAFPSP
TAF
KPSP 310520Z 3106/0106 16010KT P6SM FEW050 SCT120
     FM310700 VRB05KT P6SM FEW100 SCT250
     FM312100 13010KT P6SM SKC
     FM010300 32010G15KT P6SM SKC=



000
FTUS46 KSGX 310520
TAFPSP
TAF
KPSP 310520Z 3106/0106 16010KT P6SM FEW050 SCT120
     FM310700 VRB05KT P6SM FEW100 SCT250
     FM312100 13010KT P6SM SKC
     FM010300 32010G15KT P6SM SKC=



000
FTUS46 KSGX 310520
TAFONT
TAF
KONT 310520Z 3106/0112 VRB05KT P6SM FEW100 SCT150 BKN250
     FM311200 VRB05KT P6SM SCT010 SCT100 SCT250
     FM312000 26010G15KT P6SM SCT040 SCT120
     FM010400 VRB05KT P6SM SCT040 SCT120=



000
FTUS46 KSGX 310312 AAB
TAFPSP
TAF AMD
KPSP 310312Z 3103/3124 32015G20KT P6SM VCTS FEW090 BKN120CB
      TEMPO 3103/3104 11025G40KT 3SM BLDU
     FM310600 VRB05KT P6SM SCT050 SCT120
     FM312100 13010KT P6SM SKC=



000
FTUS46 KSGX 310312 AAB
TAFTRM
TAF AMD
KTRM 310312Z 3103/3124 07010G20KT P6SM VCTS FEW090 BKN120CB
      TEMPO 3103/3104 08025G40KT 3SM BLDU
     FM310400 33008KT P6SM FEW060 SCT100
     FM311200 VRB05KT P6SM SKC
     FM312100 11010KT P6SM FEW100=



000
FTUS46 KSGX 310312 AAA
TAFSAN
TAF AMD
KSAN 310312Z 3103/0106 VRB05KT P6SM BKN012 BKN090 BKN110
     FM311700 28010KT P6SM SCT015
     FM010300 VRB05KT P6SM SCT015 BKN025=



000
FTUS46 KSGX 310312 AAB
TAFPSP
TAF AMD
KPSP 310312Z 3103/3124 32015G20KT P6SM VCTS FEW090 BKN120CB
      TEMPO 3103/3104 11025G40KT 3SM BLDU
     FM310600 VRB05KT P6SM SCT050 SCT120
     FM312100 13010KT P6SM SKC=



000
FTUS46 KSGX 310312 AAB
TAFTRM
TAF AMD
KTRM 310312Z 3103/3124 07010G20KT P6SM VCTS FEW090 BKN120CB
      TEMPO 3103/3104 08025G40KT 3SM BLDU
     FM310400 33008KT P6SM FEW060 SCT100
     FM311200 VRB05KT P6SM SKC
     FM312100 11010KT P6SM FEW100=



000
FTUS46 KSGX 310312 AAA
TAFSAN
TAF AMD
KSAN 310312Z 3103/0106 VRB05KT P6SM BKN012 BKN090 BKN110
     FM311700 28010KT P6SM SCT015
     FM010300 VRB05KT P6SM SCT015 BKN025=



000
FTUS46 KSGX 310207 AAA
TAFTRM
TAF AMD
KTRM 310207Z 3102/3124 VRB05KT P6SM SKC
      TEMPO 3102/3104 09025G40KT 3SM BLDU
     FM310400 33008KT P6SM FEW060 SCT100
     FM311200 VRB05KT P6SM SKC
     FM312100 11010KT P6SM FEW100=



000
FTUS46 KSGX 310207 AAA
TAFPSP
TAF AMD
KPSP 310207Z 3102/3124 32020G30KT P6SM SKC
      TEMPO 3102/3104 09025G40KT 3SM BLDU
     FM310600 VRB05KT P6SM SCT050 SCT120
     FM312100 13010KT P6SM SKC=



000
FTUS46 KSGX 302320
TAFSAN
TAF
KSAN 302320Z 3100/0106 28008KT P6SM BKN015 BKN090 BKN100
     FM310200 VRB05KT P6SM OVC015
     FM311700 28010KT P6SM SCT015
     FM010300 VRB05KT P6SM SCT015 BKN025=



000
FTUS46 KSGX 302320
TAFONT
TAF
KONT 302320Z 3100/0106 25012G20KT P6SM VCTS SCT040 SCT100CB
     FM310100 25010G15KT P6SM VCTS SCT040 SCT100CB
     FM310400 VRB05KT P6SM FEW040 SCT120
     FM311200 VRB05KT P6SM SCT010 SCT100
     FM312200 26010G15KT P6SM SCT040 SCT120
     FM010400 VRB05KT P6SM SCT040 SCT120=



000
FTUS46 KSGX 302320
TAFCRQ
TAF
KCRQ 302320Z 3100/3124 26008KT P6SM BKN012 BKN020 BKN090
     FM310300 VRB05KT 6SM HZ OVC009
     FM311800 VRB05KT P6SM SCT015
     FM312100 20008KT P6SM SCT020=



000
FTUS46 KSGX 302320
TAFTRM
TAF
KTRM 302320Z 3100/3124 13010G15KT P6SM VCTS FEW060 SCT080CB
     FM310400 33008KT P6SM FEW060 SCT100
     FM311200 VRB05KT P6SM SKC
     FM312100 11010KT P6SM FEW100=



000
FTUS46 KSGX 302320
TAFPSP
TAF
KPSP 302320Z 3100/3124 10010KT P6SM VCTS SCT080CB
     FM310700 VRB05KT P6SM SCT120
     FM312100 13010KT P6SM SKC=



000
FTUS46 KSGX 302320
TAFSNA
TAF
KSNA 302320Z 3100/3124 23008KT P6SM FEW045 SCT100 SCT150
     FM310500 VRB05KT P6SM BKN015 BKN050
     FM311700 22008KT P6SM SCT020 BKN050=



000
FTUS46 KSGX 302106 AAA
TAFSAN
TAF AMD
KSAN 302106Z 3021/3124 28008KT P6SM FEW018 SCT100
     FM310300 VRB03KT P6SM OVC012
     FM311700 28010KT P6SM SCT016=



000
FTUS46 KSGX 302037 AAB
TAFCRQ
TAF AMD
KCRQ 302037Z 3021/3118 26007KT P6SM FEW012
     FM310300 VRB04KT P6SM BKN011
     FM311100 VRB03KT 6SM HZ OVC009=



000
FTUS46 KSGX 301824 AAA
TAFCRQ
TAF AMD
KCRQ 301824Z 3018/3118 26007KT P6SM BKN011
      TEMPO 3021/3101 SCT012
     FM310400 VRB04KT P6SM BKN012
     FM311100 VRB03KT 6SM HZ OVC009=



000
FTUS46 KSGX 301726
TAFONT
TAF
KONT 301726Z 3018/3124 VRB05KT P6SM FEW100 BKN150
     FM302100 25011G18KT P6SM VCTS SCT040 SCT100CB
     FM310400 VRB05KT P6SM FEW040 SCT120
     FM311200 VRB04KT P6SM SCT010=



000
FTUS46 KSGX 301726
TAFSAN
TAF
KSAN 301726Z 3018/3124 28007KT P6SM FEW018 SCT100
     FM310400 VRB03KT P6SM OVC012
     FM311700 28010KT P6SM SCT016=



000
FTUS46 KSGX 301726
TAFTRM
TAF
KTRM 301726Z 3018/3118 VRB05KT P6SM FEW100
     FM302100 15008KT P6SM VCTS FEW060 SCT100CB
     FM310500 33008KT P6SM FEW060 SCT100
     FM311200 VRB05KT P6SM SKC=



000
FTUS46 KSGX 301726
TAFCRQ
TAF
KCRQ 301726Z 3018/3118 26007KT P6SM SCT012 SCT090
     FM310400 VRB04KT P6SM BKN012
     FM311100 VRB03KT 6SM HZ OVC009=



000
FTUS46 KSGX 301726
TAFPSP
TAF
KPSP 301726Z 3018/3118 VRB05KT P6SM FEW100
     FM302100 11008KT P6SM VCTS FEW060 SCT100CB
     FM310000 32009KT P6SM SCT080
     FM310700 VRB05KT P6SM SCT200=



000
FTUS46 KSGX 301726
TAFSNA
TAF
KSNA 301726Z 3018/3118 VRB04KT P6SM SCT050 BKN100
     FM301900 22009KT P6SM SCT080 SCT150
     FM310200 VRB04KT P6SM SCT015 SCT080
     FM311000 VRB03KT P6SM BKN012=



000
FTUS46 KSGX 301529 AAB
TAFSAN
TAF AMD
KSAN 301529Z 3015/3118 VRB05KT P6SM SCT015 SCT200
     FM301800 27010KT P6SM FEW018 SCT100
     FM310200 VRB05KT P6SM BKN015
     FM311700 26010KT P6SM FEW018=



000
FTUS46 KSGX 301424 AAA
TAFCRQ
TAF AMD
KCRQ 301424Z 3014/3112 VRB05KT 6SM HZ BKN009
     FM301700 26007KT P6SM SCT015 SCT080
     FM310200 VRB05KT P6SM BKN012=



000
FTUS46 KSGX 301423 AAA
TAFONT
TAF AMD
KONT 301423Z 3014/3118 VRB05KT P6SM VCTS SCT090CB BKN150
     FM302100 25010G20KT P6SM VCTS SCT040 SCT100CB
     FM310400 VRB05KT P6SM SCT040 SCT100=



000
FTUS46 KSGX 301423 AAA
TAFONT
TAF AMD
KONT 301423Z 3014/3118 VRB05KT P6SM VCTS SCT090CB BKN150
     FM302100 25010G20KT P6SM VCTS SCT040 SCT100CB
     FM310400 VRB05KT P6SM SCT040 SCT100=



000
FTUS46 KSGX 301253 AAA
TAFSAN
TAF AMD
KSAN 301253Z 3013/3118 VRB05KT P6SM BKN015 BKN200
     FM301800 27010KT P6SM FEW018 SCT100
     FM310200 VRB05KT P6SM BKN015
     FM311700 26010KT P6SM FEW018=



000
FTUS46 KSGX 301253 AAA
TAFSAN
TAF AMD
KSAN 301253Z 3013/3118 VRB05KT P6SM BKN015 BKN200
     FM301800 27010KT P6SM FEW018 SCT100
     FM310200 VRB05KT P6SM BKN015
     FM311700 26010KT P6SM FEW018=



000
FTUS46 KSGX 301138
TAFCRQ
TAF
KCRQ 301138Z 3012/3112 VRB05KT P6SM BKN012 OVC080
     FM301700 26005KT P6SM SCT015 SCT080
     FM310200 VRB05KT P6SM BKN012=



000
FTUS46 KSGX 301138
TAFPSP
TAF
KPSP 301138Z 3012/3112 33007KT P6SM FEW100
     FM302100 11006KT P6SM VCTS FEW060 SCT100CB
     FM310000 33011G20KT P6SM SCT080
     FM310500 VRB05KT P6SM SCT200=



000
FTUS46 KSGX 301138
TAFONT
TAF
KONT 301138Z 3012/3118 VRB05KT P6SM SCT100
     FM302100 25010G20KT P6SM VCTS SCT040 SCT100CB
     FM310400 VRB05KT P6SM SCT040 SCT100=



000
FTUS46 KSGX 301138
TAFTRM
TAF
KTRM 301138Z 3012/3112 VRB05KT P6SM FEW100
     FM302100 15008KT P6SM VCTS FEW060 SCT100CB
     FM310600 33008KT P6SM FEW060 SCT100=



000
FTUS46 KSGX 301138
TAFSAN
TAF
KSAN 301138Z 3012/3118 VRB05KT P6SM SCT015 BKN200
     FM301800 27010KT P6SM FEW018 SCT100
     FM310200 VRB05KT P6SM BKN015
     FM311700 26010KT P6SM FEW018=



000
FTUS46 KSGX 301138
TAFSNA
TAF
KSNA 301138Z 3012/3112 VRB05KT P6SM SCT015 SCT060 BKN200
     FM301900 22008KT P6SM SCT015 SCT080
     FM310200 VRB05KT P6SM SCT015 SCT080
     FM311000 VRB05KT P6SM BKN015=



000
FTUS46 KSGX 301138
TAFCRQ
TAF
KCRQ 301138Z 3012/3112 VRB05KT P6SM BKN012 OVC080
     FM301700 26005KT P6SM SCT015 SCT080
     FM310200 VRB05KT P6SM BKN012=



000
FTUS46 KSGX 301138
TAFSNA
TAF
KSNA 301138Z 3012/3112 VRB05KT P6SM SCT015 SCT060 BKN200
     FM301900 22008KT P6SM SCT015 SCT080
     FM310200 VRB05KT P6SM SCT015 SCT080
     FM311000 VRB05KT P6SM BKN015=



000
FTUS46 KSGX 301138
TAFSAN
TAF
KSAN 301138Z 3012/3118 VRB05KT P6SM SCT015 BKN200
     FM301800 27010KT P6SM FEW018 SCT100
     FM310200 VRB05KT P6SM BKN015
     FM311700 26010KT P6SM FEW018=



000
FTUS46 KSGX 301138
TAFTRM
TAF
KTRM 301138Z 3012/3112 VRB05KT P6SM FEW100
     FM302100 15008KT P6SM VCTS FEW060 SCT100CB
     FM310600 33008KT P6SM FEW060 SCT100=



000
FTUS46 KSGX 301138
TAFPSP
TAF
KPSP 301138Z 3012/3112 33007KT P6SM FEW100
     FM302100 11006KT P6SM VCTS FEW060 SCT100CB
     FM310000 33011G20KT P6SM SCT080
     FM310500 VRB05KT P6SM SCT200=



000
FTUS46 KSGX 301138
TAFONT
TAF
KONT 301138Z 3012/3118 VRB05KT P6SM SCT100
     FM302100 25010G20KT P6SM VCTS SCT040 SCT100CB
     FM310400 VRB05KT P6SM SCT040 SCT100=



000
FTUS46 KSGX 300849 AAA
TAFSAN
TAF AMD
KSAN 300849Z 3009/3112 VRB05KT P6SM SCT015 OVC080
      TEMPO 3009/3011 BKN015
     FM301200 VRB05KT P6SM SCT015 BKN080
     FM301700 29010KT P6SM FEW015 SCT100
     FM310200 VRB05KT P6SM FEW015 SCT100=



000
FTUS46 KSGX 300520
TAFSAN
TAF
KSAN 300520Z 3006/3112 VRB05KT P6SM VCTS SCT015 BKN080CB BKN250
     FM300700 VRB05KT P6SM VCTS SCT015 OVC080CB
      TEMPO 3007/3011 BKN015 OVC080CB
     FM301200 VRB05KT P6SM VCTS SCT015 BKN080CB
     FM301700 29010KT P6SM FEW015 SCT100
     FM310200 VRB05KT P6SM FEW015 SCT100=



000
FTUS46 KSGX 300520
TAFSNA
TAF
KSNA 300520Z 3006/3106 VRB05KT P6SM VCTS SCT015 BKN040 BKN100CB
     FM301700 22008KT P6SM SCT015 SCT080
     FM310200 VRB05KT P6SM SCT015 SCT080=



000
FTUS46 KSGX 300520
TAFCRQ
TAF
KCRQ 300520Z 3006/3106 VRB05KT P6SM VCTS BKN012 BKN080CB
     FM300700 VRB05KT P6SM VCTS BKN012 OVC080CB
     FM301700 26005KT P6SM SCT015 SCT080
     FM310200 VRB05KT P6SM SCT012 SCT080=



000
FTUS46 KSGX 300520
TAFONT
TAF
KONT 300520Z 3006/3112 VRB05KT P6SM VCTS SCT100CB
     FM301700 25010G15KT P6SM SCT100
     FM302200 25010G20KT P6SM VCTS SCT040 SCT100CB
     FM310300 VRB05KT P6SM SCT040 SCT100=



000
FTUS46 KSGX 300520
TAFCRQ
TAF
KCRQ 300520Z 3006/3106 VRB05KT P6SM VCTS BKN012 BKN080CB
     FM300700 VRB05KT P6SM VCTS BKN012 OVC080CB
     FM301700 26005KT P6SM SCT015 SCT080
     FM310200 VRB05KT P6SM SCT012 SCT080=



000
FTUS46 KSGX 300520
TAFTRM
TAF
KTRM 300520Z 3006/3106 VRB05KT P6SM VCTS BKN100CB
     FM301200 VRB05KT P6SM FEW100
     FM301700 15010KT P6SM FEW100
     FM302100 15008KT P6SM VCTS FEW060 SCT100CB
     FM310500 VRB05KT P6SM FEW060 SCT100=



000
FTUS46 KSGX 300520
TAFSNA
TAF
KSNA 300520Z 3006/3106 VRB05KT P6SM VCTS SCT015 BKN040 BKN100CB
     FM301700 22008KT P6SM SCT015 SCT080
     FM310200 VRB05KT P6SM SCT015 SCT080=



000
FTUS46 KSGX 300520
TAFSAN
TAF
KSAN 300520Z 3006/3112 VRB05KT P6SM VCTS SCT015 BKN080CB BKN250
     FM300700 VRB05KT P6SM VCTS SCT015 OVC080CB
      TEMPO 3007/3011 BKN015 OVC080CB
     FM301200 VRB05KT P6SM VCTS SCT015 BKN080CB
     FM301700 29010KT P6SM FEW015 SCT100
     FM310200 VRB05KT P6SM FEW015 SCT100=



000
FTUS46 KSGX 300520
TAFONT
TAF
KONT 300520Z 3006/3112 VRB05KT P6SM VCTS SCT100CB
     FM301700 25010G15KT P6SM SCT100
     FM302200 25010G20KT P6SM VCTS SCT040 SCT100CB
     FM310300 VRB05KT P6SM SCT040 SCT100=



000
FTUS46 KSGX 300520
TAFPSP
TAF
KPSP 300520Z 3006/3106 VRB05KT P6SM VCTS BKN100CB
     FM301200 33010KT P6SM FEW100
     FM302100 VRB05KT P6SM VCTS FEW060 SCT100CB
     FM310500 VRB05KT P6SM SCT200=



000
FTUS46 KSGX 300520
TAFPSP
TAF
KPSP 300520Z 3006/3106 VRB05KT P6SM VCTS BKN100CB
     FM301200 33010KT P6SM FEW100
     FM302100 VRB05KT P6SM VCTS FEW060 SCT100CB
     FM310500 VRB05KT P6SM SCT200=



000
FTUS46 KSGX 300520
TAFTRM
TAF
KTRM 300520Z 3006/3106 VRB05KT P6SM VCTS BKN100CB
     FM301200 VRB05KT P6SM FEW100
     FM301700 15010KT P6SM FEW100
     FM302100 15008KT P6SM VCTS FEW060 SCT100CB
     FM310500 VRB05KT P6SM FEW060 SCT100=



000
FTUS46 KSGX 300302 AAA
TAFSNA
TAF AMD
KSNA 300302Z 3003/3024 20010KT P6SM SCT015 SCT040 SCT100
     FM300500 VRB05KT P6SM VCTS SCT015 BKN040 BKN100CB
     FM301700 VRB05KT P6SM SCT016 SCT040=



000
FTUS46 KSGX 300302 AAA
TAFSNA
TAF AMD
KSNA 300302Z 3003/3024 20010KT P6SM SCT015 SCT040 SCT100
     FM300500 VRB05KT P6SM VCTS SCT015 BKN040 BKN100CB
     FM301700 VRB05KT P6SM SCT016 SCT040=



000
FTUS46 KSGX 300258 AAB
TAFSAN
TAF AMD
KSAN 300258Z 3003/3106 26008KT P6SM VCTS BKN015 BKN080CB
     FM300400 VRB05KT P6SM VCTS SCT015 BKN080CB BKN250
     FM300700 VRB05KT P6SM VCTS SCT015 OVC080CB
      TEMPO 3007/3011 BKN015 OVC080CB
     FM301200 VRB05KT P6SM VCTS SCT015 BKN080CB
     FM301700 29010KT P6SM FEW015 SCT100=



000
FTUS46 KSGX 300041 AAA
TAFCRQ
TAF AMD
KCRQ 300041Z 3001/3024 25010KT P6SM VCTS BKN013 BKN080CB
     FM300300 VRB05KT P6SM VCTS BKN012 BKN080CB
     FM300700 VRB05KT P6SM VCTS BKN012 OVC080CB
     FM301700 VRB05KT P6SM SCT015 SCT080=



000
FTUS46 KSGX 300041 AAA
TAFSAN
TAF AMD
KSAN 300041Z 3001/3106 26010KT P6SM VCTS BKN015 BKN080CB
     FM300400 VRB05KT P6SM VCTS BKN012 BKN080CB
     FM300700 VRB05KT P6SM VCTS BKN015 OVC080CB
     FM301200 VRB05KT P6SM VCTS SCT015 BKN080CB
     FM301700 29010KT P6SM FEW015 SCT100=



000
FTUS46 KSGX 292320
TAFPSP
TAF
KPSP 292320Z 3000/3024 08010G15KT P6SM VCTS BKN100CB
     FM300100 VRB05KT P6SM VCTS BKN080CB
     FM300600 VRB05KT P6SM VCTS BKN100CB
     FM301200 VRB05KT P6SM FEW100=



000
FTUS46 KSGX 292320
TAFCRQ
TAF
KCRQ 292320Z 3000/3024 25010KT P6SM BKN015
     FM300100 25010KT P6SM BKN015 BKN080
     FM300400 VRB05KT P6SM VCTS BKN012 BKN080CB
     FM300700 VRB05KT P6SM VCTS BKN012 OVC080CB
     FM301700 VRB05KT P6SM SCT015 SCT080=



000
FTUS46 KSGX 292320
TAFSAN
TAF
KSAN 292320Z 3000/3106 26010KT P6SM BKN015 BKN080
     FM300400 VRB05KT P6SM BKN012 BKN080
     FM300700 VRB05KT P6SM VCTS BKN015 OVC080CB
     FM301200 VRB05KT P6SM VCTS SCT015 BKN080CB
     FM301700 29010KT P6SM FEW015 SCT100=



000
FTUS46 KSGX 292320
TAFSNA
TAF
KSNA 292320Z 3000/3024 22005KT P6SM SCT015 SCT100
     FM300200 VRB05KT P6SM BKN012 BKN100
     FM300500 VRB05KT P6SM VCTS BKN015 BKN100CB
     FM301700 VRB05KT P6SM SCT016=



000
FTUS46 KSGX 292320
TAFONT
TAF
KONT 292320Z 3000/3106 26010G20KT P6SM VCTS SCT100 SCT120CB
     FM300200 25010KT P6SM VCTS SCT100CB
     FM300500 VRB05KT P6SM VCTS SCT100CB
     FM302100 25010G20KT P6SM SCT100=



000
FTUS46 KSGX 292320
TAFTRM
TAF
KTRM 292320Z 3000/3024 12010G18KT P6SM VCTS BKN100CB
     FM300100 VRB05KT P6SM VCTS BKN100CB
     FM300600 VRB05KT P6SM VCTS BKN100CB
     FM301200 VRB05KT P6SM FEW100=



    US Dept of Commerce
    National Oceanic and Atmospheric Administration
    National Weather Service
    1325 East West Highway
    Silver Spring, MD 20910
    Page Author: NWS Internet Services Team
Disclaimer
Information Quality
Credits
Glossary
Privacy Policy
Freedom of Information Act (FOIA)
About Us
Career Opportunities